sensor_id;sensor_type;location;lat;lon;timestamp;P1;durP1;ratioP1;P2;durP2;ratioP2
42978;SDS011;28616;44.746;19.678;2023-03-24T00:01:12;97.90;;;43.55;;
42978;SDS011;28616;44.746;19.678;2023-03-24T00:03:38;336.42;;;141.57;;
42978;SDS011;28616;44.746;19.678;2023-03-24T00:06:04;295.63;;;121.70;;
42978;SDS011;28616;44.746;19.678;2023-03-24T00:08:34;247.77;;;103.50;;
42978;SDS011;28616;44.746;19.678;2023-03-24T00:11:01;193.80;;;79.43;;
42978;SDS011;28616;44.746;19.678;2023-03-24T00:13:30;153.25;;;65.68;;
42978;SDS011;28616;44.746;19.678;2023-03-24T00:16:02;113.88;;;50.35;;
42978;SDS011;28616;44.746;19.678;2023-03-24T00:18:29;112.57;;;51.13;;
42978;SDS011;28616;44.746;19.678;2023-03-24T00:20:56;116.15;;;48.60;;
42978;SDS011;28616;44.746;19.678;2023-03-24T00:23:25;113.78;;;50.38;;
42978;SDS011;28616;44.746;19.678;2023-03-24T00:26:06;123.60;;;51.08;;
42978;SDS011;28616;44.746;19.678;2023-03-24T00:28:36;106.10;;;47.28;;
42978;SDS011;28616;44.746;19.678;2023-03-24T00:31:03;83.50;;;39.75;;
42978;SDS011;28616;44.746;19.678;2023-03-24T00:33:30;88.55;;;39.90;;
42978;SDS011;28616;44.746;19.678;2023-03-24T00:35:59;77.40;;;32.53;;
42978;SDS011;28616;44.746;19.678;2023-03-24T00:38:27;111.53;;;49.13;;
42978;SDS011;28616;44.746;19.678;2023-03-24T00:40:53;93.82;;;43.10;;
42978;SDS011;28616;44.746;19.678;2023-03-24T00:43:19;83.30;;;38.15;;
42978;SDS011;28616;44.746;19.678;2023-03-24T00:45:45;73.90;;;34.55;;
42978;SDS011;28616;44.746;19.678;2023-03-24T00:48:14;66.28;;;31.40;;
42978;SDS011;28616;44.746;19.678;2023-03-24T00:50:49;63.37;;;31.30;;
42978;SDS011;28616;44.746;19.678;2023-03-24T00:53:16;89.85;;;37.67;;
42978;SDS011;28616;44.746;19.678;2023-03-24T00:55:43;128.02;;;52.35;;
42978;SDS011;28616;44.746;19.678;2023-03-24T00:58:15;105.05;;;44.85;;
42978;SDS011;28616;44.746;19.678;2023-03-24T01:00:44;104.40;;;44.17;;
42978;SDS011;28616;44.746;19.678;2023-03-24T01:03:10;73.00;;;34.97;;
42978;SDS011;28616;44.746;19.678;2023-03-24T01:05:37;77.93;;;34.85;;
42978;SDS011;28616;44.746;19.678;2023-03-24T01:08:03;83.65;;;37.85;;
42978;SDS011;28616;44.746;19.678;2023-03-24T01:10:31;89.03;;;41.20;;
42978;SDS011;28616;44.746;19.678;2023-03-24T01:13:15;83.70;;;40.47;;
42978;SDS011;28616;44.746;19.678;2023-03-24T01:15:42;79.60;;;39.03;;
42978;SDS011;28616;44.746;19.678;2023-03-24T01:18:09;87.38;;;41.92;;
42978;SDS011;28616;44.746;19.678;2023-03-24T01:20:37;85.60;;;41.53;;
42978;SDS011;28616;44.746;19.678;2023-03-24T01:23:05;84.30;;;42.58;;
42978;SDS011;28616;44.746;19.678;2023-03-24T01:25:32;90.13;;;44.60;;
42978;SDS011;28616;44.746;19.678;2023-03-24T01:28:00;101.80;;;48.67;;
42978;SDS011;28616;44.746;19.678;2023-03-24T01:30:27;92.30;;;47.92;;
42978;SDS011;28616;44.746;19.678;2023-03-24T01:32:57;92.43;;;49.53;;
42978;SDS011;28616;44.746;19.678;2023-03-24T01:35:23;97.93;;;50.90;;
42978;SDS011;28616;44.746;19.678;2023-03-24T01:37:51;92.00;;;48.90;;
42978;SDS011;28616;44.746;19.678;2023-03-24T01:40:21;90.75;;;48.58;;
42978;SDS011;28616;44.746;19.678;2023-03-24T01:42:51;97.07;;;48.22;;
42978;SDS011;28616;44.746;19.678;2023-03-24T01:48:14;82.20;;;45.70;;
42978;SDS011;28616;44.746;19.678;2023-03-24T01:50:45;80.88;;;45.28;;
42978;SDS011;28616;44.746;19.678;2023-03-24T01:53:16;87.28;;;43.65;;
42978;SDS011;28616;44.746;19.678;2023-03-24T01:55:42;91.07;;;45.13;;
42978;SDS011;28616;44.746;19.678;2023-03-24T01:58:10;86.47;;;44.42;;
42978;SDS011;28616;44.746;19.678;2023-03-24T02:00:36;84.47;;;43.65;;
42978;SDS011;28616;44.746;19.678;2023-03-24T02:03:06;88.25;;;44.95;;
42978;SDS011;28616;44.746;19.678;2023-03-24T02:05:36;74.20;;;39.40;;
42978;SDS011;28616;44.746;19.678;2023-03-24T02:10:57;65.03;;;35.47;;
42978;SDS011;28616;44.746;19.678;2023-03-24T02:13:25;70.30;;;36.92;;
42978;SDS011;28616;44.746;19.678;2023-03-24T02:16:52;61.92;;;32.67;;
42978;SDS011;28616;44.746;19.678;2023-03-24T02:43:42;98.57;;;44.40;;
42978;SDS011;28616;44.746;19.678;2023-03-24T02:54:57;120.55;;;48.97;;
42978;SDS011;28616;44.746;19.678;2023-03-24T02:57:34;115.75;;;48.00;;
42978;SDS011;28616;44.746;19.678;2023-03-24T03:00:05;119.28;;;48.60;;
42978;SDS011;28616;44.746;19.678;2023-03-24T03:02:48;102.25;;;47.17;;
42978;SDS011;28616;44.746;19.678;2023-03-24T03:05:23;81.57;;;39.38;;
42978;SDS011;28616;44.746;19.678;2023-03-24T03:07:56;78.00;;;34.95;;
42978;SDS011;28616;44.746;19.678;2023-03-24T03:10:30;64.63;;;30.95;;
42978;SDS011;28616;44.746;19.678;2023-03-24T03:13:01;68.15;;;31.35;;
42978;SDS011;28616;44.746;19.678;2023-03-24T03:15:37;51.55;;;26.63;;
42978;SDS011;28616;44.746;19.678;2023-03-24T03:18:13;63.97;;;26.75;;
42978;SDS011;28616;44.746;19.678;2023-03-24T03:20:49;50.42;;;23.10;;
42978;SDS011;28616;44.746;19.678;2023-03-24T03:23:22;44.35;;;21.45;;
42978;SDS011;28616;44.746;19.678;2023-03-24T03:25:54;42.83;;;19.75;;
42978;SDS011;28616;44.746;19.678;2023-03-24T03:28:29;42.17;;;18.80;;
42978;SDS011;28616;44.746;19.678;2023-03-24T03:30:58;42.95;;;20.05;;
42978;SDS011;28616;44.746;19.678;2023-03-24T03:33:32;51.15;;;21.65;;
42978;SDS011;28616;44.746;19.678;2023-03-24T03:41:20;61.33;;;29.02;;
42978;SDS011;28616;44.746;19.678;2023-03-24T03:43:47;56.47;;;28.75;;
42978;SDS011;28616;44.746;19.678;2023-03-24T03:46:13;61.63;;;30.02;;
42978;SDS011;28616;44.746;19.678;2023-03-24T03:48:41;63.13;;;32.92;;
42978;SDS011;28616;44.746;19.678;2023-03-24T03:51:07;55.38;;;29.33;;
42978;SDS011;28616;44.746;19.678;2023-03-24T03:56:24;65.68;;;33.67;;
42978;SDS011;28616;44.746;19.678;2023-03-24T03:58:53;93.28;;;40.88;;
42978;SDS011;28616;44.746;19.678;2023-03-24T04:01:19;69.72;;;34.50;;
42978;SDS011;28616;44.746;19.678;2023-03-24T04:07:11;70.72;;;33.50;;
42978;SDS011;28616;44.746;19.678;2023-03-24T04:15:02;60.05;;;29.77;;
42978;SDS011;28616;44.746;19.678;2023-03-24T04:23:18;73.10;;;33.63;;
42978;SDS011;28616;44.746;19.678;2023-03-24T04:26:15;76.88;;;36.05;;
42978;SDS011;28616;44.746;19.678;2023-03-24T04:34:35;80.07;;;35.78;;
42978;SDS011;28616;44.746;19.678;2023-03-24T04:37:12;90.22;;;39.20;;
42978;SDS011;28616;44.746;19.678;2023-03-24T04:39:41;89.45;;;40.60;;
42978;SDS011;28616;44.746;19.678;2023-03-24T04:42:14;95.85;;;40.67;;
42978;SDS011;28616;44.746;19.678;2023-03-24T04:44:49;84.43;;;38.22;;
42978;SDS011;28616;44.746;19.678;2023-03-24T04:47:16;80.30;;;35.95;;
42978;SDS011;28616;44.746;19.678;2023-03-24T04:49:45;72.85;;;37.55;;
42978;SDS011;28616;44.746;19.678;2023-03-24T04:52:11;76.95;;;34.65;;
42978;SDS011;28616;44.746;19.678;2023-03-24T04:54:36;74.15;;;34.85;;
42978;SDS011;28616;44.746;19.678;2023-03-24T04:57:02;72.35;;;34.38;;
42978;SDS011;28616;44.746;19.678;2023-03-24T04:59:29;86.68;;;36.40;;
42978;SDS011;28616;44.746;19.678;2023-03-24T05:01:58;100.28;;;42.22;;
42978;SDS011;28616;44.746;19.678;2023-03-24T05:04:26;85.63;;;39.08;;
42978;SDS011;28616;44.746;19.678;2023-03-24T05:06:52;78.00;;;37.75;;
42978;SDS011;28616;44.746;19.678;2023-03-24T05:09:20;83.50;;;38.42;;
42978;SDS011;28616;44.746;19.678;2023-03-24T05:11:47;93.80;;;41.17;;
42978;SDS011;28616;44.746;19.678;2023-03-24T05:14:14;92.60;;;39.95;;
42978;SDS011;28616;44.746;19.678;2023-03-24T05:16:41;95.35;;;38.67;;
42978;SDS011;28616;44.746;19.678;2023-03-24T05:19:06;88.80;;;41.38;;
42978;SDS011;28616;44.746;19.678;2023-03-24T05:21:33;98.35;;;41.72;;
42978;SDS011;28616;44.746;19.678;2023-03-24T05:23:59;115.63;;;49.10;;
42978;SDS011;28616;44.746;19.678;2023-03-24T05:26:24;114.70;;;48.13;;
42978;SDS011;28616;44.746;19.678;2023-03-24T05:28:51;125.18;;;53.47;;
42978;SDS011;28616;44.746;19.678;2023-03-24T05:31:17;93.22;;;46.42;;
42978;SDS011;28616;44.746;19.678;2023-03-24T05:33:43;87.03;;;42.35;;
42978;SDS011;28616;44.746;19.678;2023-03-24T05:36:09;67.65;;;33.97;;
42978;SDS011;28616;44.746;19.678;2023-03-24T05:38:35;66.38;;;31.70;;
42978;SDS011;28616;44.746;19.678;2023-03-24T05:41:01;52.88;;;25.27;;
42978;SDS011;28616;44.746;19.678;2023-03-24T05:43:27;47.60;;;23.98;;
42978;SDS011;28616;44.746;19.678;2023-03-24T05:45:53;51.78;;;23.77;;
42978;SDS011;28616;44.746;19.678;2023-03-24T05:48:20;48.55;;;24.42;;
42978;SDS011;28616;44.746;19.678;2023-03-24T05:50:46;40.58;;;18.85;;
42978;SDS011;28616;44.746;19.678;2023-03-24T05:53:12;41.90;;;20.48;;
42978;SDS011;28616;44.746;19.678;2023-03-24T05:55:38;49.63;;;21.17;;
42978;SDS011;28616;44.746;19.678;2023-03-24T05:58:04;55.35;;;22.55;;
42978;SDS011;28616;44.746;19.678;2023-03-24T06:00:30;48.20;;;22.05;;
42978;SDS011;28616;44.746;19.678;2023-03-24T06:02:57;48.75;;;22.30;;
42978;SDS011;28616;44.746;19.678;2023-03-24T06:05:24;47.70;;;22.50;;
42978;SDS011;28616;44.746;19.678;2023-03-24T06:07:50;56.75;;;24.73;;
42978;SDS011;28616;44.746;19.678;2023-03-24T06:10:22;54.47;;;21.92;;
42978;SDS011;28616;44.746;19.678;2023-03-24T06:12:50;48.88;;;22.45;;
42978;SDS011;28616;44.746;19.678;2023-03-24T06:15:16;56.67;;;25.38;;
42978;SDS011;28616;44.746;19.678;2023-03-24T06:17:42;52.88;;;24.58;;
42978;SDS011;28616;44.746;19.678;2023-03-24T06:20:09;45.92;;;20.77;;
42978;SDS011;28616;44.746;19.678;2023-03-24T06:22:40;40.30;;;20.60;;
42978;SDS011;28616;44.746;19.678;2023-03-24T06:25:08;46.00;;;19.50;;
42978;SDS011;28616;44.746;19.678;2023-03-24T06:27:35;43.28;;;20.10;;
42978;SDS011;28616;44.746;19.678;2023-03-24T06:30:02;46.80;;;18.60;;
42978;SDS011;28616;44.746;19.678;2023-03-24T06:32:28;38.20;;;20.92;;
42978;SDS011;28616;44.746;19.678;2023-03-24T06:34:54;40.53;;;20.35;;
42978;SDS011;28616;44.746;19.678;2023-03-24T06:37:20;43.85;;;20.77;;
42978;SDS011;28616;44.746;19.678;2023-03-24T06:39:47;47.22;;;23.58;;
42978;SDS011;28616;44.746;19.678;2023-03-24T06:42:12;57.50;;;24.30;;
42978;SDS011;28616;44.746;19.678;2023-03-24T06:44:38;50.40;;;22.00;;
42978;SDS011;28616;44.746;19.678;2023-03-24T06:47:04;52.67;;;21.58;;
42978;SDS011;28616;44.746;19.678;2023-03-24T06:49:30;56.00;;;22.95;;
42978;SDS011;28616;44.746;19.678;2023-03-24T06:51:58;43.60;;;21.85;;
42978;SDS011;28616;44.746;19.678;2023-03-24T06:54:25;48.40;;;21.88;;
42978;SDS011;28616;44.746;19.678;2023-03-24T06:56:52;43.63;;;20.17;;
42978;SDS011;28616;44.746;19.678;2023-03-24T06:59:18;45.85;;;20.80;;
42978;SDS011;28616;44.746;19.678;2023-03-24T07:01:48;43.03;;;21.30;;
42978;SDS011;28616;44.746;19.678;2023-03-24T07:04:17;57.80;;;23.50;;
42978;SDS011;28616;44.746;19.678;2023-03-24T07:06:43;46.05;;;21.83;;
42978;SDS011;28616;44.746;19.678;2023-03-24T07:09:09;41.13;;;21.58;;
42978;SDS011;28616;44.746;19.678;2023-03-24T07:11:36;48.03;;;21.80;;
42978;SDS011;28616;44.746;19.678;2023-03-24T07:14:02;40.72;;;19.88;;
42978;SDS011;28616;44.746;19.678;2023-03-24T07:16:28;41.78;;;19.13;;
42978;SDS011;28616;44.746;19.678;2023-03-24T07:18:54;37.65;;;18.75;;
42978;SDS011;28616;44.746;19.678;2023-03-24T07:21:19;43.35;;;20.23;;
42978;SDS011;28616;44.746;19.678;2023-03-24T07:23:45;35.78;;;18.65;;
42978;SDS011;28616;44.746;19.678;2023-03-24T07:26:11;30.80;;;17.25;;
42978;SDS011;28616;44.746;19.678;2023-03-24T07:28:36;38.40;;;19.42;;
42978;SDS011;28616;44.746;19.678;2023-03-24T07:31:02;35.60;;;19.08;;
42978;SDS011;28616;44.746;19.678;2023-03-24T07:33:30;41.75;;;21.13;;
42978;SDS011;28616;44.746;19.678;2023-03-24T07:35:56;46.00;;;21.33;;
42978;SDS011;28616;44.746;19.678;2023-03-24T07:38:23;43.30;;;22.25;;
42978;SDS011;28616;44.746;19.678;2023-03-24T07:40:50;40.03;;;21.63;;
42978;SDS011;28616;44.746;19.678;2023-03-24T07:43:15;42.55;;;22.00;;
42978;SDS011;28616;44.746;19.678;2023-03-24T07:45:43;45.53;;;23.98;;
42978;SDS011;28616;44.746;19.678;2023-03-24T07:48:09;40.67;;;21.40;;
42978;SDS011;28616;44.746;19.678;2023-03-24T07:50:36;43.20;;;23.00;;
42978;SDS011;28616;44.746;19.678;2023-03-24T07:53:02;48.95;;;24.90;;
42978;SDS011;28616;44.746;19.678;2023-03-24T07:55:27;55.20;;;25.50;;
42978;SDS011;28616;44.746;19.678;2023-03-24T07:57:53;46.53;;;22.85;;
42978;SDS011;28616;44.746;19.678;2023-03-24T08:00:19;45.20;;;24.13;;
42978;SDS011;28616;44.746;19.678;2023-03-24T08:02:46;44.45;;;22.33;;
42978;SDS011;28616;44.746;19.678;2023-03-24T08:05:14;46.35;;;21.88;;
42978;SDS011;28616;44.746;19.678;2023-03-24T08:07:40;41.53;;;21.50;;
42978;SDS011;28616;44.746;19.678;2023-03-24T08:10:22;42.20;;;20.83;;
42978;SDS011;28616;44.746;19.678;2023-03-24T08:12:49;41.40;;;20.73;;
42978;SDS011;28616;44.746;19.678;2023-03-24T08:15:15;42.53;;;22.75;;
42978;SDS011;28616;44.746;19.678;2023-03-24T08:17:41;37.25;;;19.40;;
42978;SDS011;28616;44.746;19.678;2023-03-24T08:20:08;35.50;;;18.70;;
42978;SDS011;28616;44.746;19.678;2023-03-24T08:22:39;32.40;;;17.95;;
42978;SDS011;28616;44.746;19.678;2023-03-24T08:25:10;34.80;;;18.15;;
42978;SDS011;28616;44.746;19.678;2023-03-24T08:27:37;25.58;;;16.98;;
42978;SDS011;28616;44.746;19.678;2023-03-24T08:30:04;31.90;;;17.88;;
42978;SDS011;28616;44.746;19.678;2023-03-24T08:32:32;27.08;;;16.40;;
42978;SDS011;28616;44.746;19.678;2023-03-24T08:34:59;28.65;;;16.98;;
42978;SDS011;28616;44.746;19.678;2023-03-24T08:37:25;28.98;;;15.95;;
42978;SDS011;28616;44.746;19.678;2023-03-24T08:39:50;28.75;;;15.57;;
42978;SDS011;28616;44.746;19.678;2023-03-24T08:42:16;28.50;;;17.23;;
42978;SDS011;28616;44.746;19.678;2023-03-24T08:44:42;28.95;;;15.98;;
42978;SDS011;28616;44.746;19.678;2023-03-24T08:47:08;33.67;;;16.80;;
42978;SDS011;28616;44.746;19.678;2023-03-24T08:49:34;27.02;;;16.52;;
42978;SDS011;28616;44.746;19.678;2023-03-24T08:52:00;26.15;;;16.30;;
42978;SDS011;28616;44.746;19.678;2023-03-24T08:54:26;23.45;;;14.85;;
42978;SDS011;28616;44.746;19.678;2023-03-24T08:56:51;30.30;;;15.00;;
42978;SDS011;28616;44.746;19.678;2023-03-24T08:59:17;28.38;;;15.23;;
42978;SDS011;28616;44.746;19.678;2023-03-24T09:01:43;24.10;;;14.98;;
42978;SDS011;28616;44.746;19.678;2023-03-24T09:04:08;20.83;;;12.13;;
42978;SDS011;28616;44.746;19.678;2023-03-24T09:06:34;27.70;;;13.30;;
42978;SDS011;28616;44.746;19.678;2023-03-24T09:09:00;23.08;;;13.13;;
42978;SDS011;28616;44.746;19.678;2023-03-24T09:11:26;17.60;;;11.43;;
42978;SDS011;28616;44.746;19.678;2023-03-24T09:13:52;23.77;;;12.15;;
42978;SDS011;28616;44.746;19.678;2023-03-24T09:16:18;20.05;;;10.27;;
42978;SDS011;28616;44.746;19.678;2023-03-24T09:18:45;26.42;;;11.57;;
42978;SDS011;28616;44.746;19.678;2023-03-24T09:21:11;16.52;;;9.13;;
42978;SDS011;28616;44.746;19.678;2023-03-24T09:23:37;18.00;;;9.43;;
42978;SDS011;28616;44.746;19.678;2023-03-24T09:26:03;18.58;;;10.20;;
42978;SDS011;28616;44.746;19.678;2023-03-24T09:28:31;14.50;;;8.70;;
42978;SDS011;28616;44.746;19.678;2023-03-24T09:30:58;22.75;;;10.85;;
42978;SDS011;28616;44.746;19.678;2023-03-24T09:33:24;21.23;;;9.63;;
42978;SDS011;28616;44.746;19.678;2023-03-24T09:35:54;20.38;;;9.85;;
42978;SDS011;28616;44.746;19.678;2023-03-24T09:38:21;18.10;;;8.82;;
42978;SDS011;28616;44.746;19.678;2023-03-24T09:40:48;11.70;;;7.20;;
42978;SDS011;28616;44.746;19.678;2023-03-24T09:45:52;10.93;;;6.18;;
42978;SDS011;28616;44.746;19.678;2023-03-24T09:53:33;12.82;;;4.97;;
42978;SDS011;28616;44.746;19.678;2023-03-24T09:56:03;7.40;;;3.58;;
42978;SDS011;28616;44.746;19.678;2023-03-24T09:58:31;7.80;;;4.65;;
42978;SDS011;28616;44.746;19.678;2023-03-24T10:00:57;11.95;;;5.55;;
42978;SDS011;28616;44.746;19.678;2023-03-24T10:03:23;18.40;;;7.72;;
42978;SDS011;28616;44.746;19.678;2023-03-24T10:05:57;13.38;;;6.95;;
42978;SDS011;28616;44.746;19.678;2023-03-24T10:16:21;14.55;;;8.15;;
42978;SDS011;28616;44.746;19.678;2023-03-24T10:19:16;26.30;;;11.73;;
42978;SDS011;28616;44.746;19.678;2023-03-24T10:24:28;21.45;;;10.18;;
42978;SDS011;28616;44.746;19.678;2023-03-24T10:29:35;12.48;;;6.38;;
42978;SDS011;28616;44.746;19.678;2023-03-24T10:32:17;13.70;;;5.93;;
42978;SDS011;28616;44.746;19.678;2023-03-24T10:34:46;14.88;;;5.72;;
42978;SDS011;28616;44.746;19.678;2023-03-24T10:37:13;13.18;;;5.88;;
42978;SDS011;28616;44.746;19.678;2023-03-24T10:39:40;15.35;;;5.88;;
42978;SDS011;28616;44.746;19.678;2023-03-24T10:42:08;11.50;;;5.07;;
42978;SDS011;28616;44.746;19.678;2023-03-24T10:44:36;15.18;;;5.25;;
42978;SDS011;28616;44.746;19.678;2023-03-24T10:47:04;20.70;;;6.78;;
42978;SDS011;28616;44.746;19.678;2023-03-24T10:49:32;12.52;;;5.63;;
42978;SDS011;28616;44.746;19.678;2023-03-24T10:51:59;17.13;;;7.28;;
42978;SDS011;28616;44.746;19.678;2023-03-24T10:54:28;17.30;;;7.60;;
42978;SDS011;28616;44.746;19.678;2023-03-24T10:59:31;12.27;;;5.22;;
42978;SDS011;28616;44.746;19.678;2023-03-24T11:04:26;11.80;;;3.97;;
42978;SDS011;28616;44.746;19.678;2023-03-24T11:09:23;9.07;;;3.50;;
42978;SDS011;28616;44.746;19.678;2023-03-24T11:11:49;5.40;;;3.13;;
42978;SDS011;28616;44.746;19.678;2023-03-24T11:14:25;6.05;;;3.25;;
42978;SDS011;28616;44.746;19.678;2023-03-24T11:16:52;10.95;;;4.18;;
42978;SDS011;28616;44.746;19.678;2023-03-24T11:19:22;9.57;;;3.47;;
42978;SDS011;28616;44.746;19.678;2023-03-24T11:21:51;11.68;;;3.42;;
42978;SDS011;28616;44.746;19.678;2023-03-24T11:24:18;9.35;;;3.33;;
42978;SDS011;28616;44.746;19.678;2023-03-24T11:29:18;5.45;;;3.20;;
42978;SDS011;28616;44.746;19.678;2023-03-24T11:32:20;6.80;;;3.22;;
42978;SDS011;28616;44.746;19.678;2023-03-24T11:34:39;5.32;;;3.25;;
42978;SDS011;28616;44.746;19.678;2023-03-24T11:37:13;10.45;;;3.08;;
42978;SDS011;28616;44.746;19.678;2023-03-24T11:39:40;5.85;;;2.75;;
42978;SDS011;28616;44.746;19.678;2023-03-24T11:49:29;7.60;;;2.95;;
42978;SDS011;28616;44.746;19.678;2023-03-24T11:51:56;7.90;;;3.65;;
42978;SDS011;28616;44.746;19.678;2023-03-24T11:54:35;6.05;;;2.63;;
42978;SDS011;28616;44.746;19.678;2023-03-24T11:57:02;4.65;;;2.63;;
42978;SDS011;28616;44.746;19.678;2023-03-24T12:02:00;7.50;;;3.20;;
42978;SDS011;28616;44.746;19.678;2023-03-24T12:17:13;7.75;;;2.83;;
42978;SDS011;28616;44.746;19.678;2023-03-24T12:19:56;4.20;;;2.25;;
42978;SDS011;28616;44.746;19.678;2023-03-24T12:25:02;6.25;;;2.75;;
42978;SDS011;28616;44.746;19.678;2023-03-24T12:27:36;3.75;;;2.40;;
42978;SDS011;28616;44.746;19.678;2023-03-24T12:30:09;4.95;;;2.90;;
42978;SDS011;28616;44.746;19.678;2023-03-24T12:32:46;4.93;;;2.58;;
42978;SDS011;28616;44.746;19.678;2023-03-24T12:35:27;6.82;;;2.90;;
42978;SDS011;28616;44.746;19.678;2023-03-24T12:38:20;5.03;;;2.83;;
42978;SDS011;28616;44.746;19.678;2023-03-24T12:45:49;6.07;;;2.80;;
42978;SDS011;28616;44.746;19.678;2023-03-24T12:51:09;3.45;;;2.30;;
42978;SDS011;28616;44.746;19.678;2023-03-24T12:56:45;5.75;;;2.38;;
42978;SDS011;28616;44.746;19.678;2023-03-24T12:59:13;7.13;;;2.72;;
42978;SDS011;28616;44.746;19.678;2023-03-24T13:04:07;6.47;;;2.65;;
42978;SDS011;28616;44.746;19.678;2023-03-24T13:06:36;5.28;;;2.60;;
42978;SDS011;28616;44.746;19.678;2023-03-24T13:09:05;5.05;;;2.45;;
42978;SDS011;28616;44.746;19.678;2023-03-24T13:11:59;7.95;;;2.58;;
42978;SDS011;28616;44.746;19.678;2023-03-24T13:14:25;4.32;;;2.35;;
42978;SDS011;28616;44.746;19.678;2023-03-24T13:16:53;5.35;;;2.33;;
42978;SDS011;28616;44.746;19.678;2023-03-24T13:19:22;4.95;;;2.53;;
42978;SDS011;28616;44.746;19.678;2023-03-24T13:21:49;5.07;;;3.10;;
42978;SDS011;28616;44.746;19.678;2023-03-24T13:24:17;13.80;;;3.92;;
42978;SDS011;28616;44.746;19.678;2023-03-24T13:26:59;5.20;;;3.50;;
42978;SDS011;28616;44.746;19.678;2023-03-24T13:37:18;5.90;;;3.65;;
42978;SDS011;28616;44.746;19.678;2023-03-24T13:39:58;8.43;;;3.90;;
42978;SDS011;28616;44.746;19.678;2023-03-24T13:42:32;9.25;;;4.30;;
42978;SDS011;28616;44.746;19.678;2023-03-24T13:45:00;7.35;;;3.83;;
42978;SDS011;28616;44.746;19.678;2023-03-24T13:47:45;7.47;;;4.07;;
42978;SDS011;28616;44.746;19.678;2023-03-24T13:50:12;5.45;;;3.80;;
42978;SDS011;28616;44.746;19.678;2023-03-24T13:52:39;6.65;;;4.25;;
42978;SDS011;28616;44.746;19.678;2023-03-24T13:55:13;6.38;;;4.22;;
42978;SDS011;28616;44.746;19.678;2023-03-24T13:57:40;8.93;;;4.05;;
42978;SDS011;28616;44.746;19.678;2023-03-24T14:02:43;6.97;;;3.58;;
42978;SDS011;28616;44.746;19.678;2023-03-24T14:12:50;5.95;;;3.30;;
42978;SDS011;28616;44.746;19.678;2023-03-24T14:15:21;11.95;;;3.58;;
42978;SDS011;28616;44.746;19.678;2023-03-24T14:17:48;6.63;;;4.10;;
42978;SDS011;28616;44.746;19.678;2023-03-24T14:20:25;7.40;;;3.67;;
42978;SDS011;28616;44.746;19.678;2023-03-24T14:22:52;5.80;;;3.10;;
42978;SDS011;28616;44.746;19.678;2023-03-24T14:25:21;13.73;;;3.95;;
42978;SDS011;28616;44.746;19.678;2023-03-24T14:27:49;7.93;;;4.03;;
42978;SDS011;28616;44.746;19.678;2023-03-24T14:32:50;8.15;;;3.70;;
42978;SDS011;28616;44.746;19.678;2023-03-24T14:35:25;11.07;;;3.85;;
42978;SDS011;28616;44.746;19.678;2023-03-24T14:37:55;5.07;;;3.70;;
42978;SDS011;28616;44.746;19.678;2023-03-24T14:40:45;8.82;;;3.55;;
42978;SDS011;28616;44.746;19.678;2023-03-24T14:43:19;6.15;;;4.20;;
42978;SDS011;28616;44.746;19.678;2023-03-24T14:48:32;8.25;;;3.72;;
42978;SDS011;28616;44.746;19.678;2023-03-24T14:51:27;8.02;;;3.50;;
42978;SDS011;28616;44.746;19.678;2023-03-24T14:53:49;4.38;;;3.88;;
42978;SDS011;28616;44.746;19.678;2023-03-24T14:56:15;7.55;;;4.05;;
42978;SDS011;28616;44.746;19.678;2023-03-24T14:58:43;8.25;;;3.78;;
42978;SDS011;28616;44.746;19.678;2023-03-24T15:01:09;9.43;;;3.38;;
42978;SDS011;28616;44.746;19.678;2023-03-24T15:08:43;5.63;;;4.05;;
42978;SDS011;28616;44.746;19.678;2023-03-24T15:11:09;8.95;;;4.68;;
42978;SDS011;28616;44.746;19.678;2023-03-24T15:13:48;6.30;;;4.57;;
42978;SDS011;28616;44.746;19.678;2023-03-24T15:18:49;7.97;;;4.53;;
42978;SDS011;28616;44.746;19.678;2023-03-24T15:21:20;10.38;;;4.10;;
42978;SDS011;28616;44.746;19.678;2023-03-24T15:23:47;5.60;;;4.65;;
42978;SDS011;28616;44.746;19.678;2023-03-24T15:26:14;12.13;;;4.80;;
42978;SDS011;28616;44.746;19.678;2023-03-24T15:28:40;9.10;;;4.75;;
42978;SDS011;28616;44.746;19.678;2023-03-24T15:31:05;6.35;;;3.80;;
42978;SDS011;28616;44.746;19.678;2023-03-24T15:33:39;7.57;;;4.55;;
42978;SDS011;28616;44.746;19.678;2023-03-24T15:36:12;11.15;;;4.40;;
42978;SDS011;28616;44.746;19.678;2023-03-24T15:38:43;6.97;;;4.40;;
42978;SDS011;28616;44.746;19.678;2023-03-24T15:41:15;10.15;;;4.22;;
42978;SDS011;28616;44.746;19.678;2023-03-24T15:43:43;11.10;;;5.97;;
42978;SDS011;28616;44.746;19.678;2023-03-24T15:46:23;12.93;;;6.10;;
42978;SDS011;28616;44.746;19.678;2023-03-24T15:48:51;11.88;;;5.22;;
42978;SDS011;28616;44.746;19.678;2023-03-24T15:51:19;9.60;;;5.05;;
42978;SDS011;28616;44.746;19.678;2023-03-24T15:54:13;8.77;;;4.13;;
42978;SDS011;28616;44.746;19.678;2023-03-24T15:56:57;4.55;;;3.55;;
42978;SDS011;28616;44.746;19.678;2023-03-24T15:59:31;5.28;;;3.38;;
42978;SDS011;28616;44.746;19.678;2023-03-24T16:01:57;6.90;;;4.45;;
42978;SDS011;28616;44.746;19.678;2023-03-24T16:04:23;11.48;;;4.35;;
42978;SDS011;28616;44.746;19.678;2023-03-24T16:06:52;6.28;;;4.45;;
42978;SDS011;28616;44.746;19.678;2023-03-24T16:09:19;12.00;;;5.03;;
42978;SDS011;28616;44.746;19.678;2023-03-24T16:11:47;9.63;;;4.32;;
42978;SDS011;28616;44.746;19.678;2023-03-24T16:16:53;16.30;;;5.07;;
42978;SDS011;28616;44.746;19.678;2023-03-24T16:19:20;8.95;;;4.00;;
42978;SDS011;28616;44.746;19.678;2023-03-24T16:21:46;6.80;;;3.90;;
42978;SDS011;28616;44.746;19.678;2023-03-24T16:24:12;10.77;;;4.43;;
42978;SDS011;28616;44.746;19.678;2023-03-24T16:26:38;9.55;;;4.72;;
42978;SDS011;28616;44.746;19.678;2023-03-24T16:31:40;10.73;;;4.63;;
42978;SDS011;28616;44.746;19.678;2023-03-24T16:34:07;10.60;;;4.60;;
42978;SDS011;28616;44.746;19.678;2023-03-24T16:36:32;12.82;;;4.55;;
42978;SDS011;28616;44.746;19.678;2023-03-24T16:38:58;11.63;;;4.35;;
42978;SDS011;28616;44.746;19.678;2023-03-24T16:41:29;17.23;;;6.00;;
42978;SDS011;28616;44.746;19.678;2023-03-24T16:43:54;13.52;;;6.60;;
42978;SDS011;28616;44.746;19.678;2023-03-24T16:48:56;16.05;;;6.70;;
42978;SDS011;28616;44.746;19.678;2023-03-24T16:51:23;24.23;;;6.72;;
42978;SDS011;28616;44.746;19.678;2023-03-24T16:53:49;18.13;;;7.18;;
42978;SDS011;28616;44.746;19.678;2023-03-24T16:56:15;18.77;;;7.70;;
42978;SDS011;28616;44.746;19.678;2023-03-24T16:58:43;29.60;;;11.30;;
42978;SDS011;28616;44.746;19.678;2023-03-24T17:01:17;36.78;;;14.88;;
42978;SDS011;28616;44.746;19.678;2023-03-24T17:04:01;21.75;;;10.32;;
42978;SDS011;28616;44.746;19.678;2023-03-24T17:06:33;35.97;;;11.82;;
42978;SDS011;28616;44.746;19.678;2023-03-24T17:08:59;47.78;;;18.13;;
42978;SDS011;28616;44.746;19.678;2023-03-24T17:11:26;45.70;;;20.38;;
42978;SDS011;28616;44.746;19.678;2023-03-24T17:13:54;53.40;;;20.88;;
42978;SDS011;28616;44.746;19.678;2023-03-24T17:16:28;41.17;;;17.65;;
42978;SDS011;28616;44.746;19.678;2023-03-24T17:18:56;41.35;;;17.35;;
42978;SDS011;28616;44.746;19.678;2023-03-24T17:21:21;134.57;;;39.90;;
42978;SDS011;28616;44.746;19.678;2023-03-24T17:23:48;84.40;;;34.47;;